Time;durP1;ratioP1;P1;durP2;ratioP2;P2;SDS_P1;SDS_P2;PMS_P1;PMS_P2;Temp;Humidity;BMP_temperature;BMP_pressure;BME280_temperature;BME280_humidity;BME280_pressure;Samples;Min_cycle;Max_cycle;Signal;HPM_P1;HPM_P2
2024/01/14 00:00:32;;;;;;;;;;;;;;;6.84;72.36;101519.28;7352654;19;20328;-63
2024/01/14 00:02:58;;;;;;;;;;;;;;;6.84;72.27;101514.09;7355371;19;20332;-64
2024/01/14 00:05:23;;;;;;;;;;;;;;;6.84;72.27;101508.03;7361764;19;19919;-63
2024/01/14 00:07:48;;;;;;;;;;;;;;;6.83;72.40;101508.91;7365104;19;20814;-63
2024/01/14 00:10:13;;;;;;;;;;;;;;;6.83;71.96;101504.56;7354225;19;19931;-63
2024/01/14 00:12:39;;;;;;;;;;;;;;;6.83;71.92;101499.38;7354532;19;19922;-63
2024/01/14 00:15:04;;;;;;;;;;;;;;;6.82;72.12;101505.44;7354905;19;19990;-64
2024/01/14 00:17:29;;;;;;;;;;;;;;;6.84;72.20;101497.66;7359317;19;19919;-64
2024/01/14 00:19:55;;;;;;;;;;;;;;;6.83;72.15;101498.53;7357333;19;19914;-64
2024/01/14 00:22:20;;;;;;;;;;;;;;;6.84;72.07;101495.94;7355660;19;19964;-64
2024/01/14 00:24:45;;;;;;;;;;;;;;;6.83;72.17;101494.19;7355606;19;19926;-64
2024/01/14 00:27:11;;;;;;;;;;;;;;;6.82;72.10;101487.28;7363504;19;20218;-64
2024/01/14 00:29:36;;;;;;;;;;;;;;;6.83;72.14;101486.41;7365708;19;19933;-63
2024/01/14 00:32:02;;;;;;;;;;;;;;;6.83;71.98;101476.03;7364830;19;19926;-64
2024/01/14 00:34:27;;;;;;;;;;;;;;;6.83;72.15;101481.22;7356903;19;19922;-63
2024/01/14 00:36:52;;;;;;;;;;;;;;;6.83;72.08;101476.03;7366612;19;20328;-64
2024/01/14 00:39:18;;;;;;;;;;;;;;;6.84;72.39;101471.69;7372214;19;20360;-64
2024/01/14 00:41:43;;;;;;;;;;;;;;;6.82;71.90;101466.50;7364666;19;19919;-63
2024/01/14 00:44:08;;;;;;;;;;;;;;;6.83;71.92;101468.22;7362159;19;19957;-64
2024/01/14 00:46:34;;;;;;;;;;;;;;;6.82;72.11;101457.84;7361870;19;19990;-64
2024/01/14 00:48:59;;;;;;;;;;;;;;;6.81;72.11;101454.41;7365931;19;19919;-63
2024/01/14 00:51:24;;;;;;;;;;;;;;;6.83;72.41;101455.25;7368378;19;19919;-64
2024/01/14 00:53:50;;;;;;;;;;;;;;;6.82;72.10;101450.94;7364792;19;19918;-64
2024/01/14 00:56:15;;;;;;;;;;;;;;;6.82;72.27;101444.88;7359556;19;19919;-64
2024/01/14 00:58:41;;;;;;;;;;;;;;;6.81;72.28;101449.19;7371114;19;19946;-64
2024/01/14 01:01:06;;;;;;;;;;;;;;;6.81;72.04;101440.56;7367946;19;19918;-64
2024/01/14 01:03:31;;;;;;;;;;;;;;;6.80;72.28;101442.28;7366815;19;19951;-63
2024/01/14 01:05:57;;;;;;;;;;;;;;;6.80;72.07;101436.22;7363697;19;19939;-64
2024/01/14 01:08:22;;;;;;;;;;;;;;;6.80;71.97;101429.31;7361027;19;19925;-63
2024/01/14 01:10:48;;;;;;;;;;;;;;;6.79;72.28;101421.47;7369371;19;19922;-63
2024/01/14 01:13:14;;;;;;;;;;;;;;;6.79;72.06;101427.53;7366404;19;19949;-63
2024/01/14 01:15:39;;;;;;;;;;;;;;;6.78;72.30;101420.63;7369608;19;20405;-64
2024/01/14 01:18:04;;;;;;;;;;;;;;;6.78;71.94;101411.97;7364754;19;19942;-64
2024/01/14 01:20:30;;;;;;;;;;;;;;;6.76;72.21;101415.44;7368406;19;20312;-64
2024/01/14 01:22:55;;;;;;;;;;;;;;;6.75;71.99;101410.25;7359337;19;20259;-63
2024/01/14 01:25:20;;;;;;;;;;;;;;;6.74;72.04;101403.28;7365086;19;19915;-64
2024/01/14 01:27:46;;;;;;;;;;;;;;;6.73;72.25;101394.63;7359812;19;19926;-64
2024/01/14 01:30:11;;;;;;;;;;;;;;;6.72;72.13;101394.66;7366110;19;19914;-64
2024/01/14 01:32:36;;;;;;;;;;;;;;;6.71;72.23;101392.91;7364089;19;19922;-64
2024/01/14 01:35:02;;;;;;;;;;;;;;;6.70;72.10;101398.97;7357112;19;19922;-64
2024/01/14 01:37:27;;;;;;;;;;;;;;;6.69;72.02;101394.63;7364729;19;19926;-64
2024/01/14 01:39:52;;;;;;;;;;;;;;;6.66;71.86;101392.91;7359694;19;19927;-64
2024/01/14 01:42:18;;;;;;;;;;;;;;;6.63;72.02;101394.59;7364709;19;20001;-64
2024/01/14 01:44:43;;;;;;;;;;;;;;;6.58;71.67;101391.13;7357482;19;19952;-64
2024/01/14 01:47:09;;;;;;;;;;;;;;;6.54;72.03;101389.34;7369350;19;20043;-63
2024/01/14 01:49:34;;;;;;;;;;;;;;;6.46;71.46;101387.59;7362678;19;19930;-64
2024/01/14 01:52:03;;;;;;;;;;;;;;;6.40;71.85;101385.00;7363470;19;19922;-63
2024/01/14 01:54:29;;;;;;;;;;;;;;;6.32;71.58;101384.06;7357929;19;20500;-64
2024/01/14 01:56:55;;;;;;;;;;;;;;;6.18;71.80;101375.31;7364759;19;20281;-64
2024/01/14 01:59:21;;;;;;;;;;;;;;;6.17;71.68;101373.59;7360807;19;19934;-63
2024/01/14 02:01:47;;;;;;;;;;;;;;;6.09;71.58;101380.47;7362973;19;19918;-64
2024/01/14 02:04:13;;;;;;;;;;;;;;;6.00;71.44;101376.09;7362132;19;19929;-64
2024/01/14 02:06:39;;;;;;;;;;;;;;;5.92;71.77;101373.44;7365043;19;19923;-63
2024/01/14 02:09:07;;;;;;;;;;;;;;;5.85;71.35;101370.78;7364517;19;19919;-63
2024/01/14 02:11:32;;;;;;;;;;;;;;;5.78;71.92;101368.97;7366135;19;19918;-63
2024/01/14 02:13:57;;;;;;;;;;;;;;;5.71;71.72;101366.34;7367074;19;20783;-64
2024/01/14 02:16:23;;;;;;;;;;;;;;;5.66;71.97;101354.19;7364037;19;20299;-63
2024/01/14 02:18:48;;;;;;;;;;;;;;;5.60;71.90;101362.78;7362908;19;19922;-63
2024/01/14 02:21:17;;;;;;;;;;;;;;;5.56;72.18;101357.56;7356872;19;20029;-63
2024/01/14 02:23:45;;;;;;;;;;;;;;;5.52;72.04;101356.66;7363896;19;19915;-64
2024/01/14 02:26:10;;;;;;;;;;;;;;;5.51;71.83;101354.06;7360002;19;19969;-63
2024/01/14 02:28:35;;;;;;;;;;;;;;;5.49;72.15;101355.81;7359624;19;19922;-63
2024/01/14 02:31:01;;;;;;;;;;;;;;;5.47;72.30;101353.19;7366157;19;19934;-63
2024/01/14 02:33:26;;;;;;;;;;;;;;;5.46;72.50;101347.13;7363248;19;19919;-63
2024/01/14 02:35:51;;;;;;;;;;;;;;;5.45;72.10;101340.22;7364014;19;19922;-63
2024/01/14 02:38:16;;;;;;;;;;;;;;;5.45;72.61;101348.00;7360084;19;19907;-63
2024/01/14 02:40:42;;;;;;;;;;;;;;;5.45;72.13;101349.72;7360964;19;19947;-63
2024/01/14 02:43:07;;;;;;;;;;;;;;;5.44;72.15;101354.03;7362196;19;19911;-63
2024/01/14 02:45:32;;;;;;;;;;;;;;;5.44;72.48;101348.84;7365480;19;19927;-64
2024/01/14 02:47:58;;;;;;;;;;;;;;;5.44;72.30;101348.00;7357888;19;19994;-64
2024/01/14 02:50:23;;;;;;;;;;;;;;;5.44;72.01;101343.66;7362100;19;19914;-64
2024/01/14 02:52:48;;;;;;;;;;;;;;;5.43;72.62;101347.13;7368425;19;19922;-64
2024/01/14 02:55:14;;;;;;;;;;;;;;;5.43;72.25;101338.50;7361889;19;19925;-63
2024/01/14 02:57:39;;;;;;;;;;;;;;;5.41;72.35;101338.44;7363037;19;19915;-62
2024/01/14 03:00:06;;;;;;;;;;;;;;;5.40;72.03;101347.09;7364982;19;19925;-63
2024/01/14 03:02:32;;;;;;;;;;;;;;;5.39;72.24;101341.91;7362631;19;19930;-63
2024/01/14 03:04:57;;;;;;;;;;;;;;;5.35;72.01;101338.41;7368519;19;19951;-64
2024/01/14 03:07:22;;;;;;;;;;;;;;;5.32;71.95;101328.03;7366026;19;19946;-63
2024/01/14 03:09:48;;;;;;;;;;;;;;;5.28;71.97;101328.84;7363801;19;19915;-63
2024/01/14 03:12:13;;;;;;;;;;;;;;;5.24;72.07;101324.50;7361332;19;19927;-64
2024/01/14 03:14:38;;;;;;;;;;;;;;;5.20;71.72;101322.72;7357353;19;21602;-64
2024/01/14 03:17:04;;;;;;;;;;;;;;;5.15;71.69;101311.47;7364059;19;19918;-64
2024/01/14 03:19:29;;;;;;;;;;;;;;;5.10;71.80;101316.59;7357911;19;21036;-64
2024/01/14 03:21:54;;;;;;;;;;;;;;;5.06;71.77;101313.97;7346603;19;19927;-63
2024/01/14 03:24:20;;;;;;;;;;;;;;;5.00;72.07;101304.41;7358651;19;19915;-64
2024/01/14 03:26:46;;;;;;;;;;;;;;;4.97;72.05;101301.81;7364360;19;19943;-64
2024/01/14 03:29:11;;;;;;;;;;;;;;;4.91;71.77;101300.00;7362010;19;19927;-63
2024/01/14 03:31:36;;;;;;;;;;;;;;;4.86;71.81;101306.84;7361083;19;19955;-63
2024/01/14 03:34:01;;;;;;;;;;;;;;;4.83;72.09;101304.25;7363353;19;20530;-64
2024/01/14 03:36:27;;;;;;;;;;;;;;;4.79;72.23;101299.91;7361470;19;19950;-64
2024/01/14 03:38:52;;;;;;;;;;;;;;;4.75;72.05;101300.72;7362716;19;19983;-64
2024/01/14 03:41:17;;;;;;;;;;;;;;;4.71;72.03;101300.66;7366326;19;19911;-63
2024/01/14 03:43:42;;;;;;;;;;;;;;;4.67;71.97;101304.94;7359974;19;20657;-63
2024/01/14 03:46:08;;;;;;;;;;;;;;;4.64;72.04;101299.72;7358385;19;20323;-63
2024/01/14 03:48:33;;;;;;;;;;;;;;;4.61;72.19;101298.00;7360842;19;19994;-64
2024/01/14 03:50:59;;;;;;;;;;;;;;;4.60;72.37;101300.53;7362178;19;19922;-64
2024/01/14 03:53:24;;;;;;;;;;;;;;;4.60;72.33;101295.38;7353826;19;19919;-63
2024/01/14 03:55:49;;;;;;;;;;;;;;;4.59;72.43;101291.91;7359457;19;19919;-64
2024/01/14 03:58:15;;;;;;;;;;;;;;;4.60;72.23;101287.59;7358788;19;20348;-64
2024/01/14 04:00:41;;;;;;;;;;;;;;;4.61;72.45;101289.34;7361834;19;19940;-63
2024/01/14 04:03:06;;;;;;;;;;;;;;;4.63;72.78;101292.81;7369056;19;19925;-64
2024/01/14 04:05:31;;;;;;;;;;;;;;;4.64;72.85;101279.91;7372026;19;19930;-63
2024/01/14 04:07:56;;;;;;;;;;;;;;;4.68;72.94;101280.81;7364782;19;19917;-63
2024/01/14 04:10:22;;;;;;;;;;;;;;;4.70;72.51;101271.34;7341354;19;20390;-64
2024/01/14 04:12:47;;;;;;;;;;;;;;;4.74;72.89;101275.69;7369204;19;19921;-64
2024/01/14 04:15:12;;;;;;;;;;;;;;;4.77;72.73;101273.16;7366297;19;19933;-64
2024/01/14 04:17:37;;;;;;;;;;;;;;;4.80;72.77;101270.56;7369958;19;19982;-64
2024/01/14 04:20:03;;;;;;;;;;;;;;;4.83;72.51;101270.63;7336449;19;19926;-64
2024/01/14 04:22:29;;;;;;;;;;;;;;;4.86;72.39;101275.81;7360064;19;20773;-63
2024/01/14 04:24:54;;;;;;;;;;;;;;;4.89;72.51;101275.84;7365910;19;19922;-63
2024/01/14 04:27:19;;;;;;;;;;;;;;;4.92;72.49;101270.72;7360617;19;19919;-64
2024/01/14 04:29:44;;;;;;;;;;;;;;;4.97;72.90;101264.69;7367803;19;19935;-64
2024/01/14 04:32:10;;;;;;;;;;;;;;;4.98;72.86;101267.31;7364411;19;20437;-64
2024/01/14 04:34:36;;;;;;;;;;;;;;;5.02;72.52;101265.59;7366066;19;19932;-63
2024/01/14 04:37:01;;;;;;;;;;;;;;;5.02;72.48;101256.13;7372810;19;20678;-63
2024/01/14 04:39:26;;;;;;;;;;;;;;;5.05;72.30;101256.16;7373699;19;20031;-63
2024/01/14 04:41:52;;;;;;;;;;;;;;;5.08;72.56;101255.31;7368332;19;20002;-63
2024/01/14 04:44:17;;;;;;;;;;;;;;;5.09;72.46;101257.06;7366175;19;20287;-64
2024/01/14 04:46:42;;;;;;;;;;;;;;;5.10;72.49;101248.44;7366159;19;19919;-64
2024/01/14 04:49:08;;;;;;;;;;;;;;;5.12;72.56;101251.88;7361539;19;19975;-64
2024/01/14 04:51:34;;;;;;;;;;;;;;;5.13;72.28;101243.28;7368665;19;19919;-63
2024/01/14 04:53:59;;;;;;;;;;;;;;;5.15;72.64;101241.56;7367092;19;19933;-63
2024/01/14 04:56:24;;;;;;;;;;;;;;;5.16;72.18;101243.28;7364862;19;19922;-63
2024/01/14 04:58:50;;;;;;;;;;;;;;;5.16;72.16;101238.13;7368671;19;20619;-64
2024/01/14 05:01:15;;;;;;;;;;;;;;;5.18;72.32;101231.25;7372072;19;20867;-63
2024/01/14 05:03:41;;;;;;;;;;;;;;;5.18;72.26;101228.66;7365573;19;19982;-64
2024/01/14 05:06:06;;;;;;;;;;;;;;;5.18;72.34;101231.25;7368020;19;20377;-64
2024/01/14 05:08:31;;;;;;;;;;;;;;;5.20;72.15;101225.22;7365925;19;19934;-63
2024/01/14 05:10:57;;;;;;;;;;;;;;;5.20;71.99;101229.53;7364492;19;19922;-64
2024/01/14 05:13:23;;;;;;;;;;;;;;;5.19;72.02;101232.97;7365349;19;19923;-64
2024/01/14 05:15:49;;;;;;;;;;;;;;;5.17;72.13;101230.38;7374291;19;20325;-64
2024/01/14 05:18:15;;;;;;;;;;;;;;;5.14;72.18;101225.16;7373421;19;19914;-63
2024/01/14 05:20:41;;;;;;;;;;;;;;;5.05;72.11;101211.28;7370660;19;19936;-63
2024/01/14 05:23:07;;;;;;;;;;;;;;;5.07;72.12;101217.31;7365588;19;19919;-64
2024/01/14 05:25:33;;;;;;;;;;;;;;;5.02;71.97;101216.41;7366041;19;19927;-63
2024/01/14 05:27:58;;;;;;;;;;;;;;;4.98;72.05;101217.28;7365693;19;19931;-64
2024/01/14 05:30:23;;;;;;;;;;;;;;;4.93;71.76;101210.34;7366992;19;20791;-63
2024/01/14 05:32:48;;;;;;;;;;;;;;;4.87;71.77;101210.28;7362825;19;19939;-63
2024/01/14 05:35:14;;;;;;;;;;;;;;;4.83;71.69;101213.69;7369729;19;19937;-63
2024/01/14 05:37:39;;;;;;;;;;;;;;;4.79;71.96;101214.50;7373974;19;20444;-64
2024/01/14 05:40:05;;;;;;;;;;;;;;;4.75;71.62;101210.16;7367558;19;19929;-63
2024/01/14 05:42:30;;;;;;;;;;;;;;;4.71;71.65;101208.38;7359685;19;20420;-63
2024/01/14 05:44:55;;;;;;;;;;;;;;;4.66;71.72;101205.78;7367098;19;20551;-63
2024/01/14 05:47:20;;;;;;;;;;;;;;;4.63;71.70;101210.06;7362709;19;19923;-63
2024/01/14 05:49:46;;;;;;;;;;;;;;;4.58;71.77;101209.13;7366599;19;20451;-63
2024/01/14 05:52:11;;;;;;;;;;;;;;;4.54;72.03;101204.78;7355370;19;19915;-63
2024/01/14 05:54:36;;;;;;;;;;;;;;;4.50;71.91;101203.00;7366216;19;20015;-63
2024/01/14 05:57:02;;;;;;;;;;;;;;;4.45;71.90;101205.56;7352777;19;19918;-63
2024/01/14 05:59:27;;;;;;;;;;;;;;;4.41;72.17;101203.81;7367525;19;19931;-64
2024/01/14 06:01:52;;;;;;;;;;;;;;;4.38;71.86;101198.59;7361578;19;19936;-63
2024/01/14 06:04:18;;;;;;;;;;;;;;;4.34;71.87;101196.81;7362317;19;19923;-63
2024/01/14 06:06:43;;;;;;;;;;;;;;;4.28;71.87;101197.63;7363953;19;20315;-63
2024/01/14 06:09:08;;;;;;;;;;;;;;;4.23;71.83;101188.94;7365811;19;19930;-63
2024/01/14 06:11:33;;;;;;;;;;;;;;;4.19;72.12;101174.25;7365181;19;19942;-63
2024/01/14 06:13:59;;;;;;;;;;;;;;;4.16;71.99;101182.00;7363504;19;19919;-63
2024/01/14 06:16:25;;;;;;;;;;;;;;;4.12;71.96;101182.81;7363091;19;19922;-64
2024/01/14 06:18:51;;;;;;;;;;;;;;;4.08;72.22;101174.13;7363652;19;20348;-64
2024/01/14 06:21:16;;;;;;;;;;;;;;;4.05;71.97;101179.25;7365497;19;19921;-64
2024/01/14 06:23:41;;;;;;;;;;;;;;;4.01;72.00;101179.22;7358077;19;20442;-64
2024/01/14 06:26:07;;;;;;;;;;;;;;;3.99;71.86;101186.06;7363793;19;19921;-63
2024/01/14 06:28:32;;;;;;;;;;;;;;;3.96;72.09;101188.66;7365821;19;19926;-63
2024/01/14 06:30:57;;;;;;;;;;;;;;;3.95;72.23;101186.88;7369800;19;20025;-63
2024/01/14 06:33:23;;;;;;;;;;;;;;;3.90;71.85;101185.13;7362623;19;19953;-63
2024/01/14 06:35:48;;;;;;;;;;;;;;;3.87;71.83;101182.50;7363869;19;19922;-63
2024/01/14 06:38:13;;;;;;;;;;;;;;;3.85;71.92;101179.03;7362534;19;19922;-64
2024/01/14 06:40:38;;;;;;;;;;;;;;;3.82;71.83;101179.00;7356742;19;20702;-64
2024/01/14 06:43:04;;;;;;;;;;;;;;;3.80;72.10;101183.28;7364753;19;19919;-64
2024/01/14 06:45:29;;;;;;;;;;;;;;;3.78;71.94;101182.38;7362188;19;19951;-64
2024/01/14 06:47:54;;;;;;;;;;;;;;;3.75;71.88;101179.78;7365414;19;19919;-63
2024/01/14 06:50:20;;;;;;;;;;;;;;;3.74;72.08;101179.75;7368803;19;19929;-63
2024/01/14 06:52:45;;;;;;;;;;;;;;;3.71;71.87;101172.84;7360627;19;20234;-63
2024/01/14 06:55:14;;;;;;;;;;;;;;;3.69;72.08;101174.50;7362684;19;19939;-63
2024/01/14 06:57:39;;;;;;;;;;;;;;;3.68;72.14;101166.75;7359377;19;19917;-63
2024/01/14 07:00:04;;;;;;;;;;;;;;;3.67;71.73;101177.94;7368634;19;19978;-63
2024/01/14 07:02:30;;;;;;;;;;;;;;;3.65;72.31;101167.59;7363046;19;20015;-63
2024/01/14 07:04:55;;;;;;;;;;;;;;;3.65;72.38;101167.59;7361287;19;20356;-63
2024/01/14 07:07:21;;;;;;;;;;;;;;;3.66;72.08;101171.91;7364086;19;19911;-63
2024/01/14 07:09:46;;;;;;;;;;;;;;;3.68;72.37;101162.44;7357236;19;19919;-63
2024/01/14 07:12:11;;;;;;;;;;;;;;;3.68;72.04;101172.78;7358639;19;19925;-64
2024/01/14 07:14:37;;;;;;;;;;;;;;;3.68;72.09;101167.63;7359447;19;19915;-62
2024/01/14 07:17:03;;;;;;;;;;;;;;;3.69;72.46;101164.19;7362006;19;20360;-63
2024/01/14 07:19:28;;;;;;;;;;;;;;;3.70;72.34;101159.88;7359157;19;19922;-64
2024/01/14 07:21:53;;;;;;;;;;;;;;;3.69;72.41;101148.69;7352840;19;19919;-64
2024/01/14 07:24:19;;;;;;;;;;;;;;;3.70;71.96;101159.88;7357880;19;19915;-64
2024/01/14 07:26:44;;;;;;;;;;;;;;;3.69;72.10;101148.69;7361463;19;19915;-64
2024/01/14 07:29:09;;;;;;;;;;;;;;;3.70;72.11;101144.38;7362140;19;19918;-63
2024/01/14 07:31:35;;;;;;;;;;;;;;;3.70;72.27;101154.72;7356821;19;19917;-63
2024/01/14 07:34:00;;;;;;;;;;;;;;;3.68;72.23;101152.13;7358247;19;19927;-63
2024/01/14 07:36:26;;;;;;;;;;;;;;;3.67;72.42;101149.53;7363685;19;20260;-63
2024/01/14 07:38:52;;;;;;;;;;;;;;;3.64;72.33;101150.34;7359882;19;20345;-63
2024/01/14 07:41:17;;;;;;;;;;;;;;;3.64;72.06;101155.50;7364747;19;19935;-63
2024/01/14 07:43:43;;;;;;;;;;;;;;;3.62;71.94;101158.06;7357503;19;19926;-63
2024/01/14 07:46:08;;;;;;;;;;;;;;;3.61;72.09;101160.66;7364541;19;19925;-64
2024/01/14 07:48:34;;;;;;;;;;;;;;;3.59;72.43;101167.50;7357857;19;19936;-63
2024/01/14 07:51:00;;;;;;;;;;;;;;;3.57;72.48;101174.34;7363807;19;19939;-64
2024/01/14 07:53:25;;;;;;;;;;;;;;;3.56;72.34;101170.06;7366886;19;19925;-64
2024/01/14 07:55:50;;;;;;;;;;;;;;;3.56;72.14;101177.78;7369691;19;19918;-64
2024/01/14 07:58:17;;;;;;;;;;;;;;;3.54;72.30;101171.72;7362450;19;19919;-63
2024/01/14 08:00:43;;;;;;;;;;;;;;;3.52;72.53;101176.00;7360728;19;19921;-64
2024/01/14 08:03:08;;;;;;;;;;;;;;;3.51;72.49;101179.44;7361485;19;19923;-63
2024/01/14 08:05:35;;;;;;;;;;;;;;;3.50;72.32;101177.72;7361333;19;20290;-64
2024/01/14 08:08:01;;;;;;;;;;;;;;;3.49;72.58;101175.97;7364690;19;19939;-64
2024/01/14 08:10:26;;;;;;;;;;;;;;;3.47;72.52;101188.00;7359448;19;19926;-63
2024/01/14 08:12:51;;;;;;;;;;;;;;;3.46;72.49;101181.97;7367305;19;19950;-63
2024/01/14 08:15:16;;;;;;;;;;;;;;;3.48;72.57;101171.66;7360709;19;19919;-63
2024/01/14 08:17:41;;;;;;;;;;;;;;;3.48;72.29;101179.41;7366688;19;19932;-64
2024/01/14 08:20:08;;;;;;;;;;;;;;;3.49;72.69;101175.97;7361662;19;19923;-64
2024/01/14 08:22:33;;;;;;;;;;;;;;;3.50;72.90;101168.25;7358792;19;19926;-63
2024/01/14 08:24:59;;;;;;;;;;;;;;;3.52;72.42;101160.53;7357019;19;19922;-64
2024/01/14 08:27:24;;;;;;;;;;;;;;;3.54;72.59;101161.41;7361062;19;19936;-64
2024/01/14 08:29:49;;;;;;;;;;;;;;;3.57;72.78;101151.13;7363503;19;19947;-63
2024/01/14 08:32:15;;;;;;;;;;;;;;;3.59;72.91;101152.00;7361145;19;19982;-64
2024/01/14 08:34:40;;;;;;;;;;;;;;;3.60;72.64;101153.75;7355888;19;19918;-64
2024/01/14 08:37:05;;;;;;;;;;;;;;;3.61;72.51;101147.75;7359030;19;19915;-64
2024/01/14 08:39:31;;;;;;;;;;;;;;;3.61;72.57;101152.91;7351725;19;19922;-63
2024/01/14 08:41:56;;;;;;;;;;;;;;;3.59;72.21;101146.81;7356452;19;19919;-64
2024/01/14 08:44:21;;;;;;;;;;;;;;;3.58;72.48;101142.53;7355966;19;20361;-63
2024/01/14 08:46:48;;;;;;;;;;;;;;;3.55;72.48;101148.53;7360083;19;19923;-63
2024/01/14 08:49:14;;;;;;;;;;;;;;;3.53;72.38;101152.78;7363681;19;20693;-63
2024/01/14 08:51:40;;;;;;;;;;;;;;;3.51;72.22;101148.47;7360322;19;19926;-63
2024/01/14 08:54:06;;;;;;;;;;;;;;;3.48;72.31;101151.00;7369478;19;20367;-63
2024/01/14 08:56:31;;;;;;;;;;;;;;;3.48;72.11;101153.56;7365546;19;19915;-63
2024/01/14 08:58:57;;;;;;;;;;;;;;;3.46;72.50;101155.28;7367096;19;19928;-64
2024/01/14 09:01:23;;;;;;;;;;;;;;;3.46;72.30;101155.28;7358984;19;19927;-63
2024/01/14 09:03:48;;;;;;;;;;;;;;;3.45;72.30;101156.09;7369134;19;19919;-64
2024/01/14 09:06:13;;;;;;;;;;;;;;;3.45;72.57;101174.19;7360820;19;19928;-63
2024/01/14 09:08:39;;;;;;;;;;;;;;;3.38;72.40;101158.59;7365169;19;19919;-64
2024/01/14 09:11:04;;;;;;;;;;;;;;;3.44;72.42;101167.28;7356714;19;19939;-63
2024/01/14 09:13:29;;;;;;;;;;;;;;;3.45;72.34;101169.00;7364849;19;19920;-63
2024/01/14 09:15:54;;;;;;;;;;;;;;;3.45;72.76;101177.66;7363140;19;19929;-64
2024/01/14 09:18:20;;;;;;;;;;;;;;;3.47;72.39;101180.25;7356657;19;20021;-63
2024/01/14 09:20:45;;;;;;;;;;;;;;;3.49;72.75;101170.78;7359858;19;19918;-63
2024/01/14 09:23:10;;;;;;;;;;;;;;;3.50;72.90;101169.97;7368883;19;19929;-64
2024/01/14 09:25:35;;;;;;;;;;;;;;;3.53;72.87;101170.88;7367988;19;19978;-63
2024/01/14 09:28:01;;;;;;;;;;;;;;;3.56;72.50;101172.63;7362807;19;19951;-63
2024/01/14 09:30:26;;;;;;;;;;;;;;;3.60;72.68;101169.25;7365079;19;19923;-64
2024/01/14 09:32:51;;;;;;;;;;;;;;;3.63;72.49;101164.97;7365880;19;19911;-63
2024/01/14 09:35:17;;;;;;;;;;;;;;;3.66;72.74;101161.56;7361497;19;19919;-63
2024/01/14 09:37:42;;;;;;;;;;;;;;;3.69;72.53;101159.00;7364764;19;19935;-64
2024/01/14 09:40:07;;;;;;;;;;;;;;;3.72;72.94;101163.38;7365116;19;19939;-64
2024/01/14 09:42:34;;;;;;;;;;;;;;;3.76;72.67;101159.97;7363776;19;19931;-64
2024/01/14 09:45:00;;;;;;;;;;;;;;;3.79;72.70;101162.59;7363148;19;20491;-64
2024/01/14 09:47:26;;;;;;;;;;;;;;;3.82;72.92;101160.91;7365000;19;19930;-64
2024/01/14 09:49:53;;;;;;;;;;;;;;;3.86;72.98;101157.53;7360804;19;19958;-63
2024/01/14 09:52:19;;;;;;;;;;;;;;;3.88;72.83;101150.66;7353847;19;19930;-64
2024/01/14 09:54:45;;;;;;;;;;;;;;;3.93;72.96;101150.69;7362811;19;19929;-63
2024/01/14 09:57:12;;;;;;;;;;;;;;;3.97;72.63;101147.31;7361687;19;19926;-63
2024/01/14 09:59:39;;;;;;;;;;;;;;;4.02;72.52;101147.38;7355331;19;19919;-63
2024/01/14 10:02:05;;;;;;;;;;;;;;;4.05;72.58;101139.63;7363481;19;19926;-64
2024/01/14 10:04:30;;;;;;;;;;;;;;;4.09;72.76;101144.00;7365412;19;20660;-63
2024/01/14 10:06:56;;;;;;;;;;;;;;;4.11;72.63;101148.34;7369125;19;19926;-63
2024/01/14 10:09:23;;;;;;;;;;;;;;;4.16;73.00;101150.97;7364046;19;19914;-64
2024/01/14 10:11:49;;;;;;;;;;;;;;;4.20;72.67;101152.72;7365865;19;19931;-64
2024/01/14 10:14:15;;;;;;;;;;;;;;;4.24;72.94;101154.47;7355952;19;19955;-64
2024/01/14 10:16:40;;;;;;;;;;;;;;;4.29;72.63;101147.66;7360626;19;19919;-63
2024/01/14 10:19:09;;;;;;;;;;;;;;;4.37;72.75;101156.34;7364515;19;20302;-64
2024/01/14 10:21:34;;;;;;;;;;;;;;;4.49;73.21;101149.56;7362049;19;19923;-63
2024/01/14 10:24:00;;;;;;;;;;;;;;;4.63;73.09;101147.97;7356072;19;19964;-64
2024/01/14 10:26:25;;;;;;;;;;;;;;;4.78;73.35;101148.09;7362498;19;19929;-63
2024/01/14 10:28:51;;;;;;;;;;;;;;;4.92;73.22;101151.66;7362409;19;19911;-64
2024/01/14 10:31:16;;;;;;;;;;;;;;;5.06;73.03;101163.81;7361015;19;19943;-63
2024/01/14 10:33:44;;;;;;;;;;;;;;;5.15;72.96;101161.31;7355073;19;20353;-63
2024/01/14 10:36:09;;;;;;;;;;;;;;;5.22;72.94;101163.09;7360917;19;20724;-63
2024/01/14 10:38:35;;;;;;;;;;;;;;;5.30;72.80;101156.22;7361650;19;19907;-63
2024/01/14 10:41:01;;;;;;;;;;;;;;;5.38;72.98;101162.34;7362620;19;20685;-64
2024/01/14 10:43:26;;;;;;;;;;;;;;;5.47;72.81;101167.56;7362549;19;20374;-64
2024/01/14 10:45:52;;;;;;;;;;;;;;;5.55;72.63;101161.56;7366111;19;19914;-63
2024/01/14 10:48:27;;;;;;;;;;;;;;;5.62;72.90;101160.72;7363369;19;20530;-63
2024/01/14 10:50:57;;;;;;;;;;;;;;;5.67;72.58;101159.00;7351933;19;20416;-63
2024/01/14 10:53:23;;;;;;;;;;;;;;;5.74;72.89;101160.78;7360317;19;20275;-63
2024/01/14 10:55:59;;;;;;;;;;;;;;;5.81;72.68;101162.53;7359291;19;21110;-64
2024/01/14 10:58:26;;;;;;;;;;;;;;;5.86;72.64;101160.84;7357410;19;19943;-63
2024/01/14 11:00:52;;;;;;;;;;;;;;;5.92;72.69;101160.88;7358566;19;19919;-63
2024/01/14 11:03:18;;;;;;;;;;;;;;;5.98;72.52;101166.13;7364430;19;20284;-63
2024/01/14 11:05:44;;;;;;;;;;;;;;;6.08;72.68;101150.56;7357751;19;19929;-64
2024/01/14 11:08:11;;;;;;;;;;;;;;;6.18;72.57;101154.91;7363775;19;19926;-63
2024/01/14 11:10:38;;;;;;;;;;;;;;;6.28;72.42;101159.25;7359929;19;19943;-63
2024/01/14 11:13:14;;;;;;;;;;;;;;;6.37;72.73;101159.28;7354916;19;19927;-64
2024/01/14 11:15:51;;;;;;;;;;;;;;;6.53;72.62;101156.72;7366619;19;19931;-64
2024/01/14 11:18:21;;;;;;;;;;;;;;;6.76;73.02;101163.66;7362894;19;19911;-63
2024/01/14 11:20:49;;;;;;;;;;;;;;;7.02;73.06;101145.47;7361519;19;19927;-64
2024/01/14 11:23:14;;;;;;;;;;;;;;;7.33;73.03;101145.41;7360769;19;20698;-65
2024/01/14 11:25:45;;;;;;;;;;;;;;;7.62;72.62;101141.88;7360061;19;19943;-64
2024/01/14 11:28:11;;;;;;;;;;;;;;;7.90;72.76;101132.22;7362411;19;19982;-64
2024/01/14 11:30:55;;;;;;;;;;;;;;;8.13;72.44;101134.72;7361407;19;19995;-64
2024/01/14 11:33:31;;;;;;;;;;;;;;;8.40;72.33;101139.75;7359552;19;19939;-64
2024/01/14 11:35:56;;;;;;;;;;;;;;;8.68;72.15;101134.38;7358276;19;19940;-64
2024/01/14 11:38:37;;;;;;;;;;;;;;;8.98;72.18;101128.91;7361794;19;20342;-64
2024/01/14 11:41:21;;;;;;;;;;;;;;;9.34;71.91;101129.41;7362323;19;19918;-64
2024/01/14 11:43:46;;;;;;;;;;;;;;;9.71;71.34;101121.16;7359955;19;19919;-64
2024/01/14 11:46:30;;;;;;;;;;;;;;;10.05;71.71;101122.44;7362386;19;19919;-64
2024/01/14 11:48:56;;;;;;;;;;;;;;;10.43;70.74;101118.44;7359379;19;19919;-64
2024/01/14 11:51:21;;;;;;;;;;;;;;;10.74;70.91;101102.28;7359583;19;19926;-64
2024/01/14 11:53:46;;;;;;;;;;;;;;;11.04;70.26;101106.94;7360727;19;20814;-63
2024/01/14 11:56:11;;;;;;;;;;;;;;;11.34;70.37;101107.28;7353831;19;19949;-64
2024/01/14 11:58:37;;;;;;;;;;;;;;;11.62;69.65;101110.22;7359202;19;20558;-63
2024/01/14 12:01:02;;;;;;;;;;;;;;;11.89;69.65;101106.19;7359871;19;19923;-64
2024/01/14 12:03:27;;;;;;;;;;;;;;;12.14;69.58;101102.13;7360358;19;19947;-63
2024/01/14 12:06:00;;;;;;;;;;;;;;;12.38;69.11;101092.00;7360371;19;19923;-63
2024/01/14 12:08:25;;;;;;;;;;;;;;;12.64;68.42;101100.06;7361712;19;19927;-63
2024/01/14 12:10:50;;;;;;;;;;;;;;;12.87;68.63;101109.09;7366697;19;19938;-63
2024/01/14 12:13:16;;;;;;;;;;;;;;;13.07;68.58;101093.72;7362653;19;19919;-63
2024/01/14 12:15:41;;;;;;;;;;;;;;;13.27;67.97;101092.34;7359570;19;19915;-64
2024/01/14 12:18:07;;;;;;;;;;;;;;;13.45;68.04;101089.22;7330084;19;19926;-63
2024/01/14 12:20:33;;;;;;;;;;;;;;;13.64;67.62;101085.16;7359021;19;20669;-63
2024/01/14 12:22:59;;;;;;;;;;;;;;;13.85;67.77;101088.06;7365214;19;19938;-63
2024/01/14 12:25:25;;;;;;;;;;;;;;;14.05;67.24;101079.59;7361778;19;19929;-63
2024/01/14 12:27:50;;;;;;;;;;;;;;;14.25;67.04;101080.69;7366362;19;19922;-64
2024/01/14 12:30:24;;;;;;;;;;;;;;;14.46;67.47;101080.88;7359555;19;19915;-64
2024/01/14 12:32:50;;;;;;;;;;;;;;;14.66;66.52;101082.91;7366748;19;19925;-63
2024/01/14 12:35:15;;;;;;;;;;;;;;;14.86;66.67;101074.34;7369557;19;19922;-63
2024/01/14 12:37:40;;;;;;;;;;;;;;;15.01;66.82;101085.19;7371416;19;19943;-64